createdAt,value
2023-03-27T00:00:44.751Z,99.90
2023-03-27T00:06:11.946Z,99.90
2023-03-27T00:11:16.060Z,99.90
2023-03-27T00:16:21.754Z,99.90
2023-03-27T00:21:25.935Z,99.90
2023-03-27T00:26:30.518Z,99.90
2023-03-27T00:31:34.818Z,99.90
2023-03-27T00:36:37.652Z,99.90
2023-03-27T00:41:40.649Z,99.90
2023-03-27T00:46:46.108Z,99.90
2023-03-27T00:51:49.683Z,99.90
2023-03-27T00:56:53.040Z,99.90
2023-03-27T01:02:07.291Z,99.90
2023-03-27T01:07:12.039Z,99.90
2023-03-27T01:12:36.509Z,99.90
2023-03-27T01:17:56.533Z,99.90
2023-03-27T01:23:35.377Z,99.90
2023-03-27T01:29:00.646Z,99.90
2023-03-27T01:34:34.247Z,99.90
2023-03-27T01:39:51.241Z,99.90
2023-03-27T01:44:59.365Z,99.90
2023-03-27T01:50:09.414Z,99.90
2023-03-27T01:55:19.122Z,99.90
2023-03-27T02:00:26.913Z,99.90
2023-03-27T02:05:56.641Z,99.90
2023-03-27T02:11:04.524Z,99.90
2023-03-27T02:16:12.910Z,99.90
2023-03-27T02:21:16.269Z,99.90
2023-03-27T02:26:21.701Z,99.90
2023-03-27T02:31:38.448Z,99.90
2023-03-27T02:36:50.917Z,99.90
2023-03-27T02:42:01.334Z,99.90
2023-03-27T02:47:14.834Z,99.90
2023-03-27T02:52:24.018Z,99.90
2023-03-27T02:57:31.758Z,99.90
2023-03-27T03:03:00.110Z,99.90
2023-03-27T03:08:03.419Z,99.90
2023-03-27T03:13:08.648Z,99.90
2023-03-27T03:18:14.138Z,99.90
2023-03-27T03:23:17.645Z,99.90
2023-03-27T03:28:22.261Z,99.90
2023-03-27T03:33:30.065Z,99.90
2023-03-27T03:38:38.385Z,99.90
2023-03-27T03:43:51.288Z,99.90
2023-03-27T03:48:54.554Z,99.90
2023-03-27T03:53:57.492Z,99.90
2023-03-27T03:59:01.939Z,99.90
2023-03-27T04:04:08.375Z,99.90
2023-03-27T04:09:33.597Z,99.90
2023-03-27T04:14:46.572Z,99.90
2023-03-27T04:20:10.180Z,99.90
2023-03-27T04:25:14.844Z,99.90
2023-03-27T04:30:23.359Z,99.90
2023-03-27T04:35:45.904Z,99.90
2023-03-27T04:41:18.461Z,99.90
2023-03-27T04:46:22.810Z,99.90
2023-03-27T04:51:32.534Z,99.90
2023-03-27T04:56:36.550Z,99.90
2023-03-27T05:01:40.970Z,99.90
2023-03-27T05:07:13.146Z,99.90
2023-03-27T05:12:17.685Z,99.90
2023-03-27T05:17:28.987Z,99.90
2023-03-27T05:22:31.943Z,99.90
2023-03-27T05:27:47.909Z,99.90
2023-03-27T05:32:53.869Z,99.90
2023-03-27T05:38:06.540Z,99.90
2023-03-27T05:43:11.270Z,99.90
2023-03-27T05:48:16.199Z,99.90
2023-03-27T05:53:20.393Z,99.90
2023-03-27T05:58:47.378Z,99.90
2023-03-27T06:03:56.025Z,99.90
2023-03-27T06:09:19.115Z,99.90
2023-03-27T06:14:41.413Z,99.90
2023-03-27T06:20:22.710Z,99.90
2023-03-27T06:25:32.079Z,99.90
2023-03-27T06:30:37.710Z,99.90
2023-03-27T06:36:00.712Z,99.90
2023-03-27T06:41:06.709Z,99.90
2023-03-27T06:46:44.640Z,99.90
2023-03-27T06:51:53.336Z,99.90
2023-03-27T06:57:00.806Z,99.90
2023-03-27T07:02:08.157Z,99.90
2023-03-27T07:07:12.413Z,99.90
2023-03-27T07:12:18.014Z,99.90
2023-03-27T07:17:23.924Z,99.90
2023-03-27T07:22:33.704Z,99.90
2023-03-27T07:27:42.412Z,99.90
2023-03-27T07:32:46.813Z,99.90
2023-03-27T07:37:53.461Z,99.90
2023-03-27T07:43:22.082Z,99.90
2023-03-27T07:48:25.218Z,99.90
2023-03-27T07:53:33.865Z,99.90
2023-03-27T07:58:44.981Z,99.90
2023-03-27T08:03:54.189Z,99.90
2023-03-27T08:09:01.581Z,99.90
2023-03-27T08:14:06.908Z,99.90
2023-03-27T08:19:11.446Z,99.90
2023-03-27T08:24:20.785Z,99.90
2023-03-27T08:29:45.308Z,99.90
2023-03-27T08:34:49.743Z,99.90
2023-03-27T08:39:58.952Z,99.90
2023-03-27T08:45:10.228Z,99.90
2023-03-27T08:50:32.309Z,99.90
2023-03-27T08:55:54.770Z,99.90
2023-03-27T09:01:11.520Z,99.90
2023-03-27T09:06:25.762Z,99.90
2023-03-27T09:11:42.117Z,99.90
2023-03-27T09:16:50.081Z,99.90
2023-03-27T09:22:17.984Z,99.90
2023-03-27T09:27:39.835Z,99.90
2023-03-27T09:33:00.102Z,99.90
2023-03-27T09:38:07.019Z,99.90
2023-03-27T09:43:18.821Z,99.90
2023-03-27T09:48:35.862Z,99.90
2023-03-27T09:53:59.260Z,99.90
2023-03-27T09:59:19.484Z,99.90
2023-03-27T10:04:24.364Z,99.40
2023-03-27T10:09:35.008Z,97.80
2023-03-27T10:14:47.338Z,97.30
2023-03-27T10:20:02.405Z,96.80
2023-03-27T10:25:17.586Z,96.40
2023-03-27T10:30:40.368Z,95.70
2023-03-27T10:36:01.163Z,95.40
2023-03-27T10:41:13.753Z,94.80
2023-03-27T10:46:26.944Z,94.20
2023-03-27T10:51:46.030Z,93.40
2023-03-27T10:57:00.602Z,92.50
2023-03-27T11:02:13.766Z,92.00
2023-03-27T11:07:25.257Z,91.50
2023-03-27T11:12:33.052Z,91.00
2023-03-27T11:17:42.431Z,90.70
2023-03-27T11:23:05.583Z,89.40
2023-03-27T11:28:24.955Z,88.30
2023-03-27T11:33:36.216Z,87.60
2023-03-27T11:38:47.634Z,86.50
2023-03-27T11:43:50.762Z,86.00
2023-03-27T11:49:32.148Z,86.10
2023-03-27T11:54:49.004Z,86.00
2023-03-27T12:00:11.055Z,85.00
2023-03-27T12:05:35.438Z,85.00
2023-03-27T12:10:42.441Z,83.80
2023-03-27T12:16:12.181Z,82.40
2023-03-27T12:21:46.564Z,80.40
2023-03-27T12:27:07.547Z,80.00
2023-03-27T12:32:38.497Z,80.10
2023-03-27T12:37:47.673Z,80.40
2023-03-27T12:42:53.435Z,80.60
2023-03-27T12:48:21.206Z,81.10
2023-03-27T12:53:49.981Z,84.40
2023-03-27T12:58:55.708Z,84.50
2023-03-27T13:04:20.737Z,84.00
2023-03-27T13:09:43.171Z,83.50
2023-03-27T13:15:06.724Z,83.60
2023-03-27T13:20:22.111Z,83.00
2023-03-27T13:25:33.160Z,83.50
2023-03-27T13:30:48.455Z,83.90
2023-03-27T13:36:24.513Z,84.00
2023-03-27T13:41:52.109Z,84.00
2023-03-27T13:47:55.225Z,84.40
2023-03-27T13:53:17.807Z,83.70
2023-03-27T13:58:57.844Z,83.10
2023-03-27T14:04:29.442Z,82.70
2023-03-27T14:09:52.617Z,82.10
2023-03-27T14:15:31.924Z,81.70
2023-03-27T14:20:56.278Z,80.40
2023-03-27T14:26:03.537Z,80.20
2023-03-27T14:31:19.291Z,80.90
2023-03-27T14:36:34.462Z,82.70
2023-03-27T14:41:46.823Z,83.40
2023-03-27T14:47:04.499Z,85.50
2023-03-27T14:52:09.770Z,86.90
2023-03-27T14:57:31.567Z,87.10
2023-03-27T15:02:42.290Z,88.30
2023-03-27T15:07:49.013Z,88.80
2023-03-27T15:13:11.483Z,90.30
2023-03-27T15:18:38.004Z,90.90
2023-03-27T15:23:48.770Z,91.10
2023-03-27T15:29:01.775Z,97.10
2023-03-27T15:34:12.628Z,99.90
2023-03-27T15:39:22.736Z,99.90
2023-03-27T15:44:32.012Z,99.90
2023-03-27T15:49:38.686Z,99.90
2023-03-27T15:54:55.469Z,99.90
2023-03-27T16:00:10.063Z,99.90
2023-03-27T16:05:21.241Z,99.90
2023-03-27T16:10:32.667Z,99.90
2023-03-27T16:15:38.019Z,99.90
2023-03-27T16:20:42.584Z,99.90
2023-03-27T16:25:46.187Z,99.90
2023-03-27T16:30:51.468Z,99.90
2023-03-27T16:35:58.373Z,99.90
2023-03-27T16:41:02.121Z,99.90
2023-03-27T16:46:17.592Z,99.90
2023-03-27T16:51:24.101Z,99.90
2023-03-27T16:56:27.029Z,99.90
2023-03-27T17:01:30.081Z,99.90
2023-03-27T17:06:34.429Z,99.90
2023-03-27T17:11:37.356Z,99.90
2023-03-27T17:16:40.637Z,99.90
2023-03-27T17:21:45.050Z,99.90
2023-03-27T17:26:48.991Z,99.90
2023-03-27T17:31:52.483Z,99.90
2023-03-27T17:37:06.077Z,99.90
2023-03-27T17:42:09.026Z,99.90
2023-03-27T17:47:11.992Z,99.90
2023-03-27T17:52:16.377Z,99.90
2023-03-27T17:57:19.390Z,99.90
2023-03-27T18:02:22.851Z,99.90
2023-03-27T18:07:27.781Z,99.90
2023-03-27T18:12:33.659Z,99.90
2023-03-27T18:17:36.607Z,99.90
2023-03-27T18:22:42.090Z,99.90
2023-03-27T18:27:45.173Z,99.90
2023-03-27T18:32:48.610Z,99.90
2023-03-27T18:37:52.905Z,99.90
2023-03-27T18:42:55.837Z,99.90
2023-03-27T18:48:01.170Z,99.90
2023-03-27T18:53:06.722Z,99.90
2023-03-27T18:58:09.637Z,99.90
2023-03-27T19:03:15.538Z,99.90
2023-03-27T19:08:21.768Z,99.90
2023-03-27T19:13:25.733Z,99.90
2023-03-27T19:18:51.553Z,99.90
2023-03-27T19:24:11.211Z,99.90
2023-03-27T19:29:18.851Z,99.90
2023-03-27T19:34:32.605Z,99.90
2023-03-27T19:39:40.771Z,99.90
2023-03-27T19:44:43.981Z,99.90
2023-03-27T19:49:47.057Z,99.90
2023-03-27T19:54:54.101Z,99.90
2023-03-27T19:59:59.592Z,99.90
2023-03-27T20:05:02.929Z,99.90
2023-03-27T20:10:08.089Z,99.90
2023-03-27T20:15:12.683Z,99.90
2023-03-27T20:20:19.831Z,99.90
2023-03-27T20:25:24.105Z,99.90
2023-03-27T20:30:27.676Z,99.90
2023-03-27T20:35:31.810Z,99.90
2023-03-27T20:40:53.156Z,99.90
2023-03-27T20:46:00.028Z,99.90
2023-03-27T20:51:04.629Z,99.90
2023-03-27T20:56:10.082Z,99.90
2023-03-27T21:01:13.226Z,99.90
2023-03-27T21:06:18.658Z,99.90
2023-03-27T21:11:22.961Z,99.90
2023-03-27T21:16:26.054Z,99.90
2023-03-27T21:21:29.101Z,99.90
2023-03-27T21:26:33.428Z,99.90
2023-03-27T21:31:36.420Z,99.90
2023-03-27T21:36:39.383Z,99.90
2023-03-27T21:41:43.769Z,99.90
2023-03-27T21:46:46.678Z,99.90
2023-03-27T21:51:49.672Z,99.90
2023-03-27T21:56:53.969Z,99.90
2023-03-27T22:01:57.699Z,99.90
2023-03-27T22:07:00.869Z,99.90
2023-03-27T22:12:06.164Z,99.90
2023-03-27T22:17:09.258Z,99.90
2023-03-27T22:22:18.180Z,99.90
2023-03-27T22:27:22.722Z,99.90
2023-03-27T22:32:26.049Z,99.90
2023-03-27T22:37:28.996Z,99.90
2023-03-27T22:42:33.886Z,99.90
2023-03-27T22:47:36.867Z,99.90
2023-03-27T22:52:39.812Z,99.90
2023-03-27T22:57:44.091Z,99.90
2023-03-27T23:02:47.108Z,99.90
2023-03-27T23:07:50.115Z,99.90
2023-03-27T23:12:54.505Z,99.90
2023-03-27T23:17:57.481Z,99.90
2023-03-27T23:23:00.401Z,99.90
2023-03-27T23:28:04.726Z,99.90
2023-03-27T23:33:07.893Z,99.90
2023-03-27T23:38:10.840Z,99.90
2023-03-27T23:43:15.024Z,99.90
2023-03-27T23:48:18.181Z,99.90
2023-03-27T23:53:21.988Z,99.90
2023-03-27T23:58:28.627Z,99.90
